Weather at Chicago Midway International Airport

Public forecast

Using degrees Fahrenheit for public forecast. Weather courtesy of forecast.io.

Current aviation weather report (METAR) for Chicago Midway International Airport

Retrieved 2022/05/19 08:53 UTC (40 minutes ago):

KMDW 190853Z 05005KT 3SM BR BKN020 OVC100 14/12 A2975 RMK AO2 SLP071 T01440122 53005

Aviation forecast (TAF) for Chicago Midway International Airport

Retrieved 2022/05/19 06:22 UTC (3 hours ago):

TAF KMDW 190520Z 1906/2012 23008KT P6SM FEW050 SCT250 TEMPO 1906/1910 5SM BR FM191900 20013G21KT P6SM FEW050 FEW250 FM200000 18011G17KT P6SM FEW250